Terminal Aerodrome Forecast
Issued by NWS Sioux Falls, SD

Home | Current Version | Previous Version | Text Only | Print | Product List | Glossary On
Versions: 1 2 3 4 5 6 7 8 9 10 11 12 13 14 15 16
000
FTUS43 KFSD 190349 AAC
TAFFSD
TAF AMD
KFSD 190349Z 1904/1924 27010KT P6SM OVC035
     FM190700 31020G33KT P6SM SCT025 OVC035
     FM190900 31018G30KT P6SM OVC025
     FM191900 31012KT P6SM SCT035=

USA.gov is the U.S. government's official web portal to all federal, state and local government web resources and services.